Time;durP1;ratioP1;P1;durP2;ratioP2;P2;SDS_P1;SDS_P2;PMS_P1;PMS_P2;Temp;Humidity;BMP_temperature;BMP_pressure;BME280_temperature;BME280_humidity;BME280_pressure;Samples;Min_cycle;Max_cycle;Signal;HPM_P1;HPM_P2
2021/01/06 00:01:49;;;;;;;48.92;21.20;;;;;;;3.59;100.00;101108.69;5008668;28;20484;-72
2021/01/06 00:04:15;;;;;;;44.42;20.10;;;;;;;3.55;100.00;101107.03;5008799;28;20470;-72
2021/01/06 00:06:40;;;;;;;49.35;21.73;;;;;;;3.53;100.00;101106.22;5008308;28;20025;-72
2021/01/06 00:09:06;;;;;;;46.13;20.10;;;;;;;3.56;100.00;101098.16;5005546;28;20136;-72
2021/01/06 00:11:37;;;;;;;49.50;21.00;;;;;;;3.56;100.00;101103.47;5009971;28;20037;-72
2021/01/06 00:14:09;;;;;;;44.78;19.10;;;;;;;3.60;100.00;101104.25;4988442;28;20169;-72
2021/01/06 00:16:35;;;;;;;45.00;20.13;;;;;;;3.56;100.00;101107.91;5001994;28;20041;-72
2021/01/06 00:19:00;;;;;;;46.78;20.88;;;;;;;3.52;100.00;101101.81;5008543;28;20037;-72
2021/01/06 00:21:26;;;;;;;48.38;19.70;;;;;;;3.52;100.00;101100.94;5009763;28;20080;-72
2021/01/06 00:23:52;;;;;;;43.78;18.55;;;;;;;3.59;100.00;101105.16;5010255;28;20072;-72
2021/01/06 00:26:17;;;;;;;44.10;20.27;;;;;;;3.53;100.00;101102.69;5009370;28;20429;-72
2021/01/06 00:28:43;;;;;;;40.67;19.65;;;;;;;3.62;100.00;101099.78;5007545;28;20141;-71
2021/01/06 00:31:08;;;;;;;45.55;18.83;;;;;;;3.62;100.00;101097.13;5005880;28;20468;-72
2021/01/06 00:33:35;;;;;;;40.70;19.63;;;;;;;3.48;100.00;101089.56;5024757;28;20493;-72
2021/01/06 00:36:11;;;;;;;43.42;19.92;;;;;;;3.56;100.00;101092.88;5009838;28;20881;-69
2021/01/06 00:38:38;;;;;;;44.03;18.65;;;;;;;3.60;100.00;101093.63;5008567;28;20044;-71
2021/01/06 00:41:05;;;;;;;47.58;20.10;;;;;;;3.56;100.00;101086.69;4991200;28;20356;-72
2021/01/06 00:43:32;;;;;;;41.60;19.42;;;;;;;3.54;100.00;101083.19;5007777;28;20379;-71
2021/01/06 00:45:58;;;;;;;45.80;19.17;;;;;;;3.57;100.00;101078.69;5008541;28;20489;-72
2021/01/06 00:48:23;;;;;;;50.97;19.85;;;;;;;3.63;100.00;101082.94;5003824;28;20121;-72
2021/01/06 00:50:53;;;;;;;43.47;18.75;;;;;;;3.56;100.00;101082.25;5003329;28;20045;-72
2021/01/06 00:53:24;;;;;;;45.70;18.63;;;;;;;3.56;100.00;101079.59;5005521;28;20044;-71
2021/01/06 00:55:54;;;;;;;45.13;19.40;;;;;;;3.62;100.00;101075.88;5007822;28;20036;-71
2021/01/06 00:58:21;;;;;;;42.40;19.02;;;;;;;3.73;100.00;101079.06;5007027;28;20037;-70
2021/01/06 01:00:48;;;;;;;42.10;19.48;;;;;;;3.76;100.00;101079.00;5007586;28;20033;-72
2021/01/06 01:03:14;;;;;;;43.65;18.83;;;;;;;3.70;100.00;101078.31;5007040;28;20026;-72
2021/01/06 01:05:41;;;;;;;37.50;18.30;;;;;;;3.73;100.00;101084.38;5007567;28;20038;-72
2021/01/06 01:08:08;;;;;;;43.42;19.35;;;;;;;3.68;100.00;101070.38;5006860;28;20052;-70
2021/01/06 01:10:40;;;;;;;42.15;18.25;;;;;;;3.70;100.00;101073.00;5008780;28;20056;-72
2021/01/06 01:13:17;;;;;;;40.25;18.48;;;;;;;3.83;100.00;101069.03;5008080;28;20065;-72
2021/01/06 01:15:46;;;;;;;40.58;18.25;;;;;;;3.80;100.00;101070.00;5002539;28;20063;-70
2021/01/06 01:18:15;;;;;;;41.15;18.10;;;;;;;3.76;100.00;101071.03;5005936;28;20513;-72
2021/01/06 01:20:53;;;;;;;46.25;18.95;;;;;;;3.70;100.00;101065.91;5009027;28;20201;-72
2021/01/06 01:23:20;;;;;;;37.92;17.35;;;;;;;3.70;100.00;101063.25;5004485;28;20041;-72
2021/01/06 01:25:47;;;;;;;38.10;17.02;;;;;;;3.75;100.00;101073.72;5008578;28;20061;-72
2021/01/06 01:28:14;;;;;;;40.13;17.92;;;;;;;3.62;100.00;101067.91;5007311;28;20040;-72
2021/01/06 01:30:39;;;;;;;36.22;17.27;;;;;;;3.72;100.00;101068.50;5008412;28;20073;-72
2021/01/06 01:33:04;;;;;;;34.85;16.60;;;;;;;3.76;100.00;101078.13;5006343;28;20097;-72
2021/01/06 01:35:32;;;;;;;37.67;18.27;;;;;;;3.74;100.00;101080.81;5008267;28;20079;-71
2021/01/06 01:37:59;;;;;;;36.00;16.95;;;;;;;3.71;100.00;101070.28;5006827;28;20046;-71
2021/01/06 01:40:38;;;;;;;39.55;17.17;;;;;;;3.78;100.00;101081.56;5007138;28;20044;-72
2021/01/06 01:43:19;;;;;;;33.47;16.02;;;;;;;3.68;100.00;101078.34;5006566;28;20057;-72
2021/01/06 01:45:44;;;;;;;36.85;16.58;;;;;;;3.63;100.00;101085.59;5007617;28;20141;-72
2021/01/06 01:48:42;;;;;;;34.90;15.98;;;;;;;3.70;100.00;101073.88;5006552;28;20120;-72
2021/01/06 01:51:18;;;;;;;36.35;17.17;;;;;;;3.70;100.00;101081.84;5004118;28;20080;-72
2021/01/06 01:54:00;;;;;;;40.78;16.95;;;;;;;3.62;100.00;101073.22;5006220;28;20026;-72
2021/01/06 01:56:37;;;;;;;34.50;16.50;;;;;;;3.67;100.00;101079.25;5006596;28;20050;-72
2021/01/06 01:59:08;;;;;;;35.42;17.00;;;;;;;3.78;100.00;101077.13;5005284;28;20044;-71
2021/01/06 02:01:35;;;;;;;38.25;17.60;;;;;;;3.71;100.00;101072.06;5006766;28;20390;-72
2021/01/06 02:04:08;;;;;;;40.42;18.17;;;;;;;3.72;100.00;101082.63;5006646;28;20041;-69
2021/01/06 02:06:41;;;;;;;33.92;15.88;;;;;;;3.71;100.00;101075.59;5008121;28;20143;-72
2021/01/06 02:09:21;;;;;;;36.78;16.92;;;;;;;3.76;100.00;101068.38;5007234;28;20116;-71
2021/01/06 02:11:55;;;;;;;33.67;16.88;;;;;;;3.73;100.00;101068.44;5001570;28;20034;-71
2021/01/06 02:14:28;;;;;;;36.92;17.80;;;;;;;3.75;100.00;101074.59;5006096;28;20498;-72
2021/01/06 02:17:05;;;;;;;39.65;16.95;;;;;;;3.80;100.00;101075.31;5007184;28;20038;-72
2021/01/06 02:19:34;;;;;;;37.17;17.10;;;;;;;3.84;100.00;101070.78;5005091;28;20048;-71
2021/01/06 02:22:00;;;;;;;35.08;17.02;;;;;;;3.78;100.00;101057.69;5001991;28;20034;-71
2021/01/06 02:24:28;;;;;;;35.40;16.67;;;;;;;3.79;100.00;101068.25;5005495;28;20037;-72
2021/01/06 02:26:54;;;;;;;35.10;16.85;;;;;;;3.84;100.00;101066.34;5006275;28;20123;-72
2021/01/06 02:29:19;;;;;;;34.03;17.23;;;;;;;3.89;100.00;101068.88;5008286;28;20490;-72
2021/01/06 02:31:45;;;;;;;36.25;17.42;;;;;;;3.86;100.00;101069.81;5006039;28;20026;-72
2021/01/06 02:34:11;;;;;;;33.65;16.77;;;;;;;4.00;100.00;101072.91;5006166;28;20521;-71
2021/01/06 02:36:37;;;;;;;34.45;17.02;;;;;;;3.86;100.00;101072.47;5005542;28;20521;-72
2021/01/06 02:39:06;;;;;;;33.88;17.17;;;;;;;3.85;100.00;101075.16;5004481;28;20038;-72
2021/01/06 02:41:32;;;;;;;38.03;16.42;;;;;;;3.96;100.00;101071.25;5010428;28;20034;-72
2021/01/06 02:43:57;;;;;;;32.30;15.88;;;;;;;4.01;100.00;101071.13;5010347;28;20450;-72
2021/01/06 02:46:23;;;;;;;33.75;15.77;;;;;;;3.97;100.00;101075.66;5010475;28;20029;-72
2021/01/06 02:48:48;;;;;;;30.77;14.65;;;;;;;3.97;100.00;101066.81;4999667;28;20482;-72
2021/01/06 02:51:21;;;;;;;31.98;15.07;;;;;;;4.07;100.00;101074.44;5024790;28;20034;-72
2021/01/06 02:53:53;;;;;;;27.40;14.07;;;;;;;3.99;100.00;101070.31;5004784;28;20617;-71
2021/01/06 02:56:20;;;;;;;25.33;14.35;;;;;;;3.95;100.00;101072.16;5010241;28;20034;-70
2021/01/06 02:58:48;;;;;;;25.75;13.63;;;;;;;4.07;100.00;101071.78;5006332;28;20038;-72
2021/01/06 03:01:19;;;;;;;27.17;14.30;;;;;;;3.97;100.00;101074.78;5007797;28;20083;-71
2021/01/06 03:03:45;;;;;;;27.27;14.27;;;;;;;4.01;100.00;101069.31;5008411;28;20136;-71
2021/01/06 03:06:18;;;;;;;32.33;14.85;;;;;;;3.97;100.00;101072.13;5009618;28;20101;-72
2021/01/06 03:08:44;;;;;;;;;;;;;;;3.91;100.00;101067.88;5010538;28;20431;-72
2021/01/06 03:11:10;;;;;;;29.23;14.05;;;;;;;3.89;100.00;101069.72;5010175;28;19928;-72
2021/01/06 03:13:36;;;;;;;29.42;14.48;;;;;;;3.90;100.00;101058.16;5010792;28;20034;-72
2021/01/06 03:16:02;;;;;;;28.52;14.65;;;;;;;3.86;100.00;101069.81;5010603;28;20464;-72
2021/01/06 03:18:28;;;;;;;29.92;14.23;;;;;;;3.84;100.00;101068.97;4992156;28;20037;-71
2021/01/06 03:20:58;;;;;;;28.85;14.88;;;;;;;3.81;100.00;101066.44;5009457;28;20482;-72
2021/01/06 03:23:40;;;;;;;31.02;13.95;;;;;;;3.84;100.00;101066.34;5010276;28;20458;-72
2021/01/06 03:26:10;;;;;;;28.67;14.38;;;;;;;3.81;100.00;101066.44;5010136;28;20034;-71
2021/01/06 03:28:36;;;;;;;26.60;14.32;;;;;;;3.77;100.00;101061.25;5008945;28;20092;-72
2021/01/06 03:31:07;;;;;;;26.83;13.82;;;;;;;3.88;100.00;101062.69;5010103;28;20050;-71
2021/01/06 03:33:39;;;;;;;29.67;14.55;;;;;;;3.88;100.00;101056.50;5009545;28;20044;-71
2021/01/06 03:36:11;;;;;;;28.85;14.25;;;;;;;3.87;100.00;101060.94;5009913;28;20052;-71
2021/01/06 03:38:40;;;;;;;30.67;14.68;;;;;;;3.82;100.00;101067.31;5009173;28;20069;-72
2021/01/06 03:41:08;;;;;;;31.25;14.88;;;;;;;3.79;100.00;101057.66;5008739;28;20482;-71
2021/01/06 03:43:39;;;;;;;30.45;16.33;;;;;;;3.80;100.00;101059.38;5008838;28;20580;-72
2021/01/06 03:46:18;;;;;;;36.58;17.45;;;;;;;3.98;100.00;101064.13;5028843;28;20409;-70
2021/01/06 03:48:49;;;;;;;32.42;16.55;;;;;;;3.89;100.00;101058.25;5009336;28;20038;-71
2021/01/06 03:51:38;;;;;;;35.60;16.73;;;;;;;3.82;100.00;101060.22;5008394;28;20405;-69
2021/01/06 03:54:33;;;;;;;34.35;17.15;;;;;;;3.89;100.00;101059.09;5007054;28;20121;-71
2021/01/06 03:57:01;;;;;;;32.40;16.25;;;;;;;4.04;100.00;101058.63;5005501;28;20106;-72
2021/01/06 03:59:33;;;;;;;36.92;17.80;;;;;;;3.86;100.00;101058.31;5010490;28;20048;-72
2021/01/06 04:02:16;;;;;;;33.63;16.42;;;;;;;3.94;100.00;101057.19;5007048;28;20037;-71
2021/01/06 04:04:46;;;;;;;;;;;;;;;3.89;100.00;101063.56;5006479;28;20083;-72
2021/01/06 04:07:26;;;;;;;32.80;16.63;;;;;;;3.84;100.00;101053.06;4992073;28;19933;-71
2021/01/06 04:10:04;;;;;;;37.88;17.95;;;;;;;3.81;100.00;101047.84;5010213;28;20480;-71
2021/01/06 04:12:29;;;;;;;37.30;17.83;;;;;;;3.82;100.00;101051.38;5007895;28;20072;-71
2021/01/06 04:14:54;;;;;;;39.53;18.58;;;;;;;3.84;100.00;101060.16;5009158;28;20061;-72
2021/01/06 04:17:30;;;;;;;34.17;18.10;;;;;;;3.83;100.00;101053.09;5007030;28;20038;-71
2021/01/06 04:20:25;;;;;;;36.08;17.48;;;;;;;3.82;100.00;101060.22;5008228;28;20033;-71
2021/01/06 04:22:53;;;;;;;36.78;17.42;;;;;;;3.87;100.00;101047.66;5007244;28;20092;-70
2021/01/06 04:25:31;;;;;;;39.65;18.00;;;;;;;3.86;100.00;101047.69;5003835;28;20038;-71
2021/01/06 04:27:57;;;;;;;39.40;17.95;;;;;;;3.90;100.00;101050.22;5003966;28;20042;-71
2021/01/06 04:30:45;;;;;;;40.80;19.83;;;;;;;3.85;100.00;101051.28;5008019;28;20038;-72
2021/01/06 04:33:18;;;;;;;36.47;17.90;;;;;;;3.80;100.00;101048.75;5009657;28;20144;-72
2021/01/06 04:35:44;;;;;;;44.53;20.13;;;;;;;3.79;100.00;101047.03;5008329;28;20573;-72
2021/01/06 04:38:15;;;;;;;37.78;19.15;;;;;;;3.81;100.00;101045.19;5006231;28;20060;-71
2021/01/06 04:40:43;;;;;;;41.22;19.38;;;;;;;3.97;100.00;101040.25;5008921;28;20058;-71
2021/01/06 04:43:13;;;;;;;37.53;18.98;;;;;;;3.90;100.00;101042.25;5008296;28;20045;-72
2021/01/06 04:45:43;;;;;;;37.83;19.40;;;;;;;3.97;100.00;101035.81;5007761;28;20041;-72
2021/01/06 04:48:19;;;;;;;41.05;19.75;;;;;;;3.98;100.00;101039.34;5007644;28;20786;-70
2021/01/06 04:50:59;;;;;;;37.50;18.67;;;;;;;3.95;100.00;101044.78;5008607;28;20066;-72
2021/01/06 04:53:24;;;;;;;35.55;18.30;;;;;;;3.95;100.00;101042.94;5007746;28;20022;-71
2021/01/06 04:56:21;;;;;;;35.00;18.55;;;;;;;3.89;100.00;101042.31;5003439;28;20398;-72
2021/01/06 04:58:54;;;;;;;35.05;17.70;;;;;;;3.91;100.00;101037.78;5008209;28;20052;-71
2021/01/06 05:01:32;;;;;;;40.75;19.73;;;;;;;3.88;100.00;101040.56;5007496;28;20042;-71
2021/01/06 05:04:27;;;;;;;35.08;17.48;;;;;;;3.88;100.00;101048.53;5002208;28;20038;-72
2021/01/06 05:06:58;;;;;;;36.60;17.92;;;;;;;3.91;100.00;101043.97;5006478;28;20068;-71
2021/01/06 05:09:48;;;;;;;33.85;17.58;;;;;;;3.97;100.00;101041.13;5009451;28;20107;-71
2021/01/06 05:12:24;;;;;;;36.63;17.55;;;;;;;3.86;100.00;101042.41;5009003;28;20407;-71
2021/01/06 05:15:11;;;;;;;36.58;17.52;;;;;;;3.82;100.00;101046.06;5007257;28;20034;-72
2021/01/06 05:17:39;;;;;;;40.55;18.13;;;;;;;3.85;100.00;101038.88;5001000;28;20045;-71
2021/01/06 05:20:06;;;;;;;40.20;17.83;;;;;;;3.81;100.00;101046.97;5008281;28;20046;-72
2021/01/06 05:22:31;;;;;;;36.25;17.75;;;;;;;3.89;100.00;101040.50;5008073;28;20032;-70
2021/01/06 05:24:57;;;;;;;34.45;17.30;;;;;;;3.91;100.00;101043.97;5006382;28;20042;-72
2021/01/06 05:27:22;;;;;;;36.38;18.33;;;;;;;3.86;100.00;101037.09;5006224;28;20044;-72
2021/01/06 05:29:57;;;;;;;33.65;17.35;;;;;;;3.91;100.00;101043.97;5008906;28;20036;-69
2021/01/06 05:32:31;;;;;;;34.28;17.25;;;;;;;3.85;100.00;101044.19;5007382;28;20041;-72
2021/01/06 05:35:09;;;;;;;35.20;17.88;;;;;;;3.81;100.00;101045.19;5006349;28;20056;-71
2021/01/06 05:37:35;;;;;;;38.60;18.70;;;;;;;3.75;100.00;101039.22;5002890;28;20053;-72
2021/01/06 05:40:08;;;;;;;37.53;18.42;;;;;;;3.74;100.00;101038.34;5005343;28;20436;-72
2021/01/06 05:42:39;;;;;;;36.28;17.27;;;;;;;3.80;100.00;101040.81;5007804;28;20484;-72
2021/01/06 05:45:07;;;;;;;37.20;17.58;;;;;;;3.73;100.00;101036.59;5011428;28;20065;-72
2021/01/06 05:47:37;;;;;;;35.10;16.77;;;;;;;3.75;100.00;101034.78;5007589;28;20057;-71
2021/01/06 05:50:11;;;;;;;37.90;18.02;;;;;;;3.75;100.00;101032.13;5008534;28;20034;-71
2021/01/06 05:52:37;;;;;;;39.05;18.25;;;;;;;3.72;100.00;101029.53;5005487;28;20085;-71
2021/01/06 05:55:06;;;;;;;41.03;19.58;;;;;;;3.75;100.00;101034.78;5008621;28;20058;-72
2021/01/06 05:58:02;;;;;;;33.67;17.25;;;;;;;3.76;100.00;101036.50;5008079;28;20053;-71
2021/01/06 06:01:00;;;;;;;42.30;19.05;;;;;;;3.80;100.00;101038.16;5004055;28;20057;-71
2021/01/06 06:03:57;;;;;;;43.05;18.63;;;;;;;3.80;100.00;101034.63;4983812;28;20045;-71
2021/01/06 06:06:46;;;;;;;38.45;18.20;;;;;;;3.77;100.00;101040.88;4994746;28;20506;-70
2021/01/06 06:09:30;;;;;;;40.40;18.50;;;;;;;3.75;100.00;101050.69;5002792;28;20033;-72
2021/01/06 06:12:21;;;;;;;37.72;19.50;;;;;;;3.79;100.00;101039.06;5008614;28;20509;-71
2021/01/06 06:15:05;;;;;;;40.67;19.67;;;;;;;3.84;100.00;101050.41;5004280;28;20030;-72
2021/01/06 06:17:55;;;;;;;41.60;19.52;;;;;;;3.85;100.00;101043.31;5005414;28;20037;-71
2021/01/06 06:20:45;;;;;;;40.58;20.77;;;;;;;3.93;100.00;101042.16;5005041;28;20037;-71
2021/01/06 06:23:32;;;;;;;38.72;20.55;;;;;;;3.87;100.00;101044.13;5003345;28;20136;-71
2021/01/06 06:26:17;;;;;;;37.22;19.40;;;;;;;3.78;100.00;101049.72;5004334;28;20120;-71
2021/01/06 06:29:16;;;;;;;39.97;19.50;;;;;;;3.84;100.00;101042.44;5006115;28;20034;-72
2021/01/06 06:32:01;;;;;;;43.97;21.33;;;;;;;3.78;100.00;101039.97;4980169;28;20107;-71
2021/01/06 06:34:36;;;;;;;41.58;19.25;;;;;;;3.79;100.00;101047.03;5007339;28;20499;-71
2021/01/06 06:37:14;;;;;;;43.58;21.13;;;;;;;3.88;100.00;101046.75;5001454;28;20458;-72
2021/01/06 06:39:43;;;;;;;48.30;21.75;;;;;;;3.82;100.00;101046.06;5001015;28;20121;-71
2021/01/06 06:42:30;;;;;;;43.75;19.33;;;;;;;3.72;100.00;101045.47;5006519;28;20022;-71
2021/01/06 06:45:02;;;;;;;34.78;18.20;;;;;;;3.83;100.00;101051.31;5007634;28;20551;-72
2021/01/06 06:48:01;;;;;;;45.85;20.55;;;;;;;3.80;100.00;101048.75;5007840;28;20029;-72
2021/01/06 06:50:42;;;;;;;91.55;37.58;;;;;;;3.77;100.00;101054.16;5002415;28;20042;-76
2021/01/06 06:53:53;;;;;;;46.10;22.45;;;;;;;3.74;100.00;101054.28;5005339;28;20498;-72
2021/01/06 06:56:39;;;;;;;41.35;19.58;;;;;;;3.79;100.00;101054.13;5011599;28;20121;-73
2021/01/06 06:59:14;;;;;;;41.17;21.38;;;;;;;3.89;100.00;101048.47;5004810;28;20069;-74
2021/01/06 07:01:45;;;;;;;34.35;18.50;;;;;;;3.72;100.00;101050.78;5005246;28;20026;-73
2021/01/06 07:04:32;;;;;;;41.97;20.50;;;;;;;3.81;100.00;101047.84;5007227;28;20125;-74
2021/01/06 07:07:01;;;;;;;40.95;19.23;;;;;;;3.68;100.00;101049.16;5003591;28;20483;-73
2021/01/06 07:09:37;;;;;;;41.22;21.23;;;;;;;3.65;100.00;101052.75;5005943;28;20383;-73
2021/01/06 07:12:08;;;;;;;41.50;20.30;;;;;;;3.65;100.00;101054.53;5006028;28;20473;-73
2021/01/06 07:14:38;;;;;;;42.42;20.02;;;;;;;3.76;100.00;101056.88;5005107;28;20045;-73
2021/01/06 07:17:06;;;;;;;43.78;19.70;;;;;;;3.71;100.00;101054.34;5004992;28;20486;-74
2021/01/06 07:20:00;;;;;;;39.35;19.27;;;;;;;3.67;100.00;101058.91;5006604;28;20034;-73
2021/01/06 07:22:43;;;;;;;38.15;18.90;;;;;;;3.70;100.00;101065.91;4996327;28;20033;-74
2021/01/06 07:25:18;;;;;;;33.80;18.00;;;;;;;3.71;100.00;101062.31;5003227;28;20080;-73
2021/01/06 07:27:50;;;;;;;33.33;17.65;;;;;;;3.78;100.00;101061.22;5005641;28;20041;-74
2021/01/06 07:30:38;;;;;;;31.05;17.55;;;;;;;3.69;100.00;101061.50;5008706;28;20049;-73
2021/01/06 07:33:37;;;;;;;37.20;18.30;;;;;;;3.56;100.00;101060.13;5005806;28;20065;-72
2021/01/06 07:36:34;;;;;;;34.97;18.00;;;;;;;3.62;100.00;101065.25;5010290;28;20076;-73
2021/01/06 07:39:02;;;;;;;38.45;17.33;;;;;;;3.61;100.00;101063.53;5009186;28;20081;-73
2021/01/06 07:41:29;;;;;;;36.40;18.88;;;;;;;3.57;100.00;101064.53;5009761;28;20040;-73
2021/01/06 07:44:19;;;;;;;36.40;18.08;;;;;;;3.52;100.00;101069.97;5012983;28;20033;-73
2021/01/06 07:47:00;;;;;;;38.55;19.55;;;;;;;3.52;100.00;101063.78;5009317;28;20104;-74
2021/01/06 07:49:47;;;;;;;35.00;18.77;;;;;;;3.48;100.00;101067.44;5008845;28;20410;-72
2021/01/06 07:52:50;;;;;;;41.42;18.52;;;;;;;3.40;100.00;101066.78;5007972;28;20069;-73
2021/01/06 07:55:32;;;;;;;34.55;17.35;;;;;;;3.45;100.00;101067.56;5007861;28;20107;-72
2021/01/06 07:58:02;;;;;;;33.90;17.48;;;;;;;3.51;100.00;101072.69;4990918;28;20046;-73
2021/01/06 08:00:36;;;;;;;41.42;19.55;;;;;;;3.50;100.00;101068.28;5003820;28;20065;-74
2021/01/06 08:03:40;;;;;;;37.67;18.80;;;;;;;3.51;100.00;101075.34;5009498;28;20044;-70
2021/01/06 08:06:06;;;;;;;41.92;18.92;;;;;;;3.48;100.00;101078.06;4997576;28;20108;-73
2021/01/06 08:08:44;;;;;;;35.15;17.80;;;;;;;3.44;100.00;101077.31;5008929;28;20038;-73
2021/01/06 08:11:14;;;;;;;38.70;19.17;;;;;;;3.47;100.00;101082.50;5005050;28;20135;-73
2021/01/06 08:13:58;;;;;;;40.22;18.02;;;;;;;3.53;100.00;101081.44;5024504;28;20044;-73
2021/01/06 08:16:27;;;;;;;40.30;18.85;;;;;;;3.50;100.00;101078.91;5008336;28;20040;-73
2021/01/06 08:19:11;;;;;;;39.65;18.77;;;;;;;3.41;100.00;101084.47;5009164;28;20525;-73
2021/01/06 08:22:02;;;;;;;38.65;19.17;;;;;;;3.44;100.00;101087.03;5009716;28;20044;-74
2021/01/06 08:24:35;;;;;;;34.53;17.95;;;;;;;3.44;100.00;101092.34;5018902;28;20037;-73
2021/01/06 08:27:01;;;;;;;;;;;;;;;3.46;100.00;101095.81;5009587;28;20044;-72
2021/01/06 08:29:31;;;;;;;36.00;17.80;;;;;;;3.44;100.00;101090.56;5001552;28;19968;-73
2021/01/06 08:32:05;;;;;;;38.58;19.33;;;;;;;3.39;100.00;101094.28;5007321;28;20042;-73
2021/01/06 08:34:37;;;;;;;42.63;19.73;;;;;;;3.46;100.00;101099.34;5008472;28;20517;-73
2021/01/06 08:37:06;;;;;;;34.50;17.47;;;;;;;3.49;100.00;101095.72;5007982;28;20049;-73
2021/01/06 08:39:37;;;;;;;37.85;18.02;;;;;;;3.54;100.00;101094.69;5001386;28;20041;-73
2021/01/06 08:42:18;;;;;;;38.03;18.30;;;;;;;3.47;100.00;101095.78;5007537;28;20121;-73
2021/01/06 08:44:54;;;;;;;37.47;17.52;;;;;;;3.53;100.00;101092.94;5011592;28;20033;-73
2021/01/06 08:47:46;;;;;;;33.53;16.15;;;;;;;3.52;100.00;101092.97;5008818;28;20124;-72
2021/01/06 08:50:33;;;;;;;38.83;17.80;;;;;;;3.51;100.00;101093.91;5005121;28;20109;-73
2021/01/06 08:53:01;;;;;;;31.63;16.83;;;;;;;3.56;100.00;101089.34;5007801;28;20042;-73
2021/01/06 08:55:31;;;;;;;34.13;17.88;;;;;;;3.67;100.00;101097.84;5000289;28;20025;-73
2021/01/06 08:58:13;;;;;;;38.50;17.48;;;;;;;3.63;100.00;101098.84;5007823;28;20132;-73
2021/01/06 09:01:03;;;;;;;33.70;17.40;;;;;;;3.69;100.00;101098.69;5015485;28;20034;-73
2021/01/06 09:03:54;;;;;;;34.08;17.48;;;;;;;3.65;100.00;101102.31;5007269;28;20050;-73
2021/01/06 09:06:25;;;;;;;31.52;16.58;;;;;;;3.75;100.00;101108.25;5001131;28;20045;-73
2021/01/06 09:08:53;;;;;;;34.85;18.10;;;;;;;3.74;100.00;101107.38;5004887;28;20044;-73
2021/01/06 09:11:31;;;;;;;36.47;16.73;;;;;;;3.83;100.00;101111.50;5009363;28;20038;-72
2021/01/06 09:13:59;;;;;;;34.25;17.30;;;;;;;3.69;100.00;101109.28;5005928;28;20041;-72
2021/01/06 09:16:38;;;;;;;33.03;17.42;;;;;;;3.72;100.00;101106.53;5006191;28;20132;-71
2021/01/06 09:19:13;;;;;;;36.95;17.52;;;;;;;3.85;100.00;101109.69;5008109;28;20121;-73
2021/01/06 09:21:40;;;;;;;30.13;15.95;;;;;;;3.84;100.00;101107.94;5006839;28;20037;-72
2021/01/06 09:24:15;;;;;;;32.55;17.45;;;;;;;3.77;100.00;101112.56;5008324;28;20513;-73
2021/01/06 09:26:44;;;;;;;72.05;29.30;;;;;;;3.85;100.00;101117.66;5005301;28;20038;-77
2021/01/06 09:29:13;;;;;;;38.65;18.77;;;;;;;3.87;100.00;101123.81;5008571;28;20507;-72
2021/01/06 09:31:45;;;;;;;34.13;17.33;;;;;;;3.79;100.00;101118.72;5005353;28;20040;-73
2021/01/06 09:34:17;;;;;;;32.53;16.42;;;;;;;3.87;100.00;101122.00;5007086;28;20550;-73
2021/01/06 09:36:44;;;;;;;30.33;16.50;;;;;;;3.90;100.00;101123.69;5006440;28;20034;-72
2021/01/06 09:39:20;;;;;;;32.97;16.92;;;;;;;3.90;100.00;101121.91;5008490;28;20073;-72
2021/01/06 09:41:46;;;;;;;33.38;16.98;;;;;;;3.84;100.00;101124.75;5008083;28;20029;-71
2021/01/06 09:44:13;;;;;;;30.02;16.10;;;;;;;3.97;100.00;101122.59;5012258;28;20033;-72
2021/01/06 09:46:55;;;;;;;35.83;18.70;;;;;;;4.05;100.00;101125.88;5005750;28;20434;-70
2021/01/06 09:49:30;;;;;;;33.80;16.05;;;;;;;3.97;100.00;101126.13;5007984;28;20037;-72
2021/01/06 09:51:59;;;;;;;35.40;16.55;;;;;;;3.90;100.00;101135.19;5007678;28;20034;-73
2021/01/06 09:54:26;;;;;;;35.45;18.77;;;;;;;3.90;100.00;101124.56;5007989;28;20501;-71
2021/01/06 09:56:53;;;;;;;34.67;17.77;;;;;;;3.88;100.00;101126.41;5007179;28;20032;-72
2021/01/06 09:59:26;;;;;;;38.30;17.50;;;;;;;3.97;100.00;101130.56;5005478;28;20108;-73
2021/01/06 10:01:55;;;;;;;39.08;17.58;;;;;;;3.86;100.00;101125.59;5005863;28;20033;-70
2021/01/06 10:04:24;;;;;;;36.00;17.92;;;;;;;3.93;100.00;101132.44;5005989;28;20046;-73
2021/01/06 10:07:08;;;;;;;45.25;18.55;;;;;;;3.91;100.00;101126.31;5008826;28;20038;-72
2021/01/06 10:09:38;;;;;;;38.33;16.75;;;;;;;3.85;100.00;101131.81;5003847;28;20029;-72
2021/01/06 10:12:22;;;;;;;34.92;18.48;;;;;;;3.91;100.00;101120.13;5007550;28;20037;-72
2021/01/06 10:15:22;;;;;;;34.35;18.10;;;;;;;3.85;100.00;101126.50;5004456;28;20374;-71
2021/01/06 10:17:57;;;;;;;37.47;18.48;;;;;;;4.00;100.00;101126.03;5004801;28;20097;-72
2021/01/06 10:20:35;;;;;;;36.03;17.48;;;;;;;4.00;100.00;101117.19;5005997;28;20033;-72
2021/01/06 10:23:29;;;;;;;36.90;17.25;;;;;;;4.08;100.00;101117.81;5006321;28;20038;-72
2021/01/06 10:26:03;;;;;;;33.92;17.10;;;;;;;4.08;100.00;101118.69;5006861;28;20315;-72
2021/01/06 10:28:41;;;;;;;35.33;18.13;;;;;;;4.07;100.00;101114.28;5003718;28;20030;-73
2021/01/06 10:31:14;;;;;;;37.85;18.05;;;;;;;4.11;100.00;101108.88;5003030;28;20157;-73
2021/01/06 10:34:00;;;;;;;34.10;18.25;;;;;;;4.15;100.00;101113.16;5007260;28;20068;-73
2021/01/06 10:36:27;;;;;;;42.28;19.58;;;;;;;4.17;100.00;101108.69;5008149;28;20083;-73
2021/01/06 10:38:52;;;;;;;48.40;20.90;;;;;;;4.07;100.00;101106.31;5006834;28;20061;-73
2021/01/06 10:41:25;;;;;;;36.72;18.33;;;;;;;4.05;100.00;101097.53;5006824;28;20113;-73
2021/01/06 10:43:53;;;;;;;39.97;17.55;;;;;;;4.13;100.00;101102.63;5006488;28;20071;-72
2021/01/06 10:46:39;;;;;;;41.85;17.52;;;;;;;4.08;100.00;101101.88;5005040;28;20042;-73
2021/01/06 10:49:25;;;;;;;38.10;18.55;;;;;;;4.23;100.00;101097.88;5006204;28;20565;-73
2021/01/06 10:51:50;;;;;;;34.72;17.27;;;;;;;4.19;100.00;101096.25;4998361;28;20549;-73
2021/01/06 10:54:31;;;;;;;39.25;17.92;;;;;;;4.18;100.00;101099.81;5005211;28;20061;-73
2021/01/06 10:56:59;;;;;;;40.90;18.17;;;;;;;4.29;100.00;101095.00;5006633;28;20080;-72
2021/01/06 10:59:24;;;;;;;33.15;16.42;;;;;;;4.26;100.00;101095.97;5007294;28;20025;-73
2021/01/06 11:02:11;;;;;;;33.25;17.00;;;;;;;4.19;100.00;101088.28;5004502;28;20048;-72
2021/01/06 11:04:39;;;;;;;45.55;21.77;;;;;;;4.23;100.00;101093.44;5011830;28;20091;-73
2021/01/06 11:07:56;;;;;;;34.78;17.00;;;;;;;4.26;99.54;101085.34;5007145;28;20042;-73
2021/01/06 11:10:57;;;;;;;43.88;20.88;;;;;;;4.14;100.00;101091.03;4993457;28;20140;-73
2021/01/06 11:13:50;;;;;;;34.00;16.67;;;;;;;4.21;100.00;101087.28;5006235;28;20052;-73
2021/01/06 11:16:42;;;;;;;32.15;16.55;;;;;;;4.18;100.00;101086.53;5004394;28;20089;-72
2021/01/06 11:19:45;;;;;;;35.50;18.77;;;;;;;4.26;99.10;101092.47;5010480;28;20053;-73
2021/01/06 11:22:19;;;;;;;38.58;19.88;;;;;;;4.24;100.00;101075.69;5008508;28;20030;-72
2021/01/06 11:25:05;;;;;;;32.42;16.70;;;;;;;4.33;98.30;101076.25;5010201;28;20120;-73
2021/01/06 11:27:41;;;;;;;34.25;17.77;;;;;;;4.23;97.45;101073.97;5009670;28;20030;-73
2021/01/06 11:30:29;;;;;;;29.02;15.80;;;;;;;4.28;98.59;101066.69;4991223;28;20129;-72
2021/01/06 11:33:13;;;;;;;27.92;13.60;;;;;;;4.35;96.76;101070.91;5010183;28;20041;-73
2021/01/06 11:35:50;;;;;;;29.58;14.05;;;;;;;4.26;97.11;101058.78;5007992;28;20478;-72
2021/01/06 11:38:37;;;;;;;28.23;13.98;;;;;;;4.25;96.36;101061.50;5009702;28;20097;-73
2021/01/06 11:41:04;;;;;;;26.40;13.98;;;;;;;4.20;96.08;101066.06;5005597;28;20037;-73
2021/01/06 11:43:38;;;;;;;23.92;12.98;;;;;;;4.26;97.07;101057.94;5006987;28;20041;-73
2021/01/06 11:46:33;;;;;;;26.73;13.95;;;;;;;4.24;96.86;101059.75;5007344;28;20033;-73